Time;durP1;ratioP1;P1;durP2;ratioP2;P2;SDS_P1;SDS_P2;PMS_P1;PMS_P2;Temp;Humidity;BMP_temperature;BMP_pressure;BME280_temperature;BME280_humidity;BME280_pressure;Samples;Min_cycle;Max_cycle;Signal;HPM_P1;HPM_P2
2021/12/25 00:01:00;;;;;;;13.45;7.15;;;2.20;94.90;;;;;;5126405;28;20062;-76
2021/12/25 00:03:26;;;;;;;13.20;8.43;;;2.10;94.90;;;;;;5130885;28;20450;-75
2021/12/25 00:05:53;;;;;;;13.07;6.70;;;2.20;94.50;;;;;;5130259;28;20027;-75
2021/12/25 00:08:23;;;;;;;16.23;8.15;;;2.10;94.70;;;;;;5130896;28;20066;-75
2021/12/25 00:10:49;;;;;;;12.00;7.28;;;2.00;94.70;;;;;;5128405;28;20023;-76
2021/12/25 00:13:18;;;;;;;16.90;8.63;;;2.00;95.00;;;;;;5131521;28;20419;-75
2021/12/25 00:15:43;;;;;;;14.77;7.38;;;2.00;95.40;;;;;;5112977;28;20023;-76
2021/12/25 00:18:09;;;;;;;14.63;7.68;;;2.00;95.40;;;;;;5130511;28;20456;-76
2021/12/25 00:20:35;;;;;;;17.63;8.20;;;2.00;95.50;;;;;;5131115;27;20034;-75
2021/12/25 00:23:04;;;;;;;14.23;7.45;;;2.00;95.80;;;;;;5130723;27;20031;-75
2021/12/25 00:25:34;;;;;;;14.93;7.47;;;1.90;95.50;;;;;;5129992;28;20381;-76
2021/12/25 00:28:16;;;;;;;11.52;7.45;;;2.00;95.10;;;;;;5125366;28;20015;-76
2021/12/25 00:31:01;;;;;;;13.35;6.82;;;2.00;94.80;;;;;;5128800;28;20016;-76
2021/12/25 00:35:57;;;;;;;15.23;8.63;;;2.00;94.60;;;;;;5130713;28;20035;-76
2021/12/25 00:38:23;;;;;;;12.82;7.95;;;2.10;94.00;;;;;;5130148;27;20106;-76
2021/12/25 00:40:49;;;;;;;11.73;6.95;;;2.10;94.20;;;;;;5134511;27;20564;-76
2021/12/25 00:43:15;;;;;;;13.48;7.40;;;2.10;93.80;;;;;;5129222;27;20053;-76
2021/12/25 00:45:40;;;;;;;14.30;7.32;;;2.20;94.00;;;;;;5135095;27;20023;-75
2021/12/25 00:48:06;;;;;;;12.68;7.65;;;2.20;94.30;;;;;;5131121;27;20038;-76
2021/12/25 00:50:32;;;;;;;12.73;7.63;;;2.30;94.60;;;;;;5132390;27;20034;-76
2021/12/25 00:52:58;;;;;;;10.05;5.88;;;2.20;94.00;;;;;;5127573;27;20034;-76
2021/12/25 00:55:24;;;;;;;13.77;8.15;;;2.40;93.40;;;;;;5131539;27;20023;-75
2021/12/25 00:57:50;;;;;;;12.02;6.28;;;2.50;93.80;;;;;;5127239;27;20026;-76
2021/12/25 01:00:16;;;;;;;14.52;6.60;;;2.40;93.90;;;;;;5126326;27;20444;-75
2021/12/25 01:02:43;;;;;;;12.95;6.43;;;2.40;93.90;;;;;;5131455;27;20035;-76
2021/12/25 01:05:11;;;;;;;11.65;7.40;;;2.30;94.00;;;;;;5132588;27;20065;-76
2021/12/25 01:07:37;;;;;;;13.75;7.78;;;2.20;93.90;;;;;;5133242;27;20043;-76
2021/12/25 01:10:07;;;;;;;15.43;6.65;;;2.30;93.60;;;;;;5132759;27;20111;-75
2021/12/25 01:12:47;;;;;;;12.20;6.78;;;2.30;93.50;;;;;;5131903;27;20060;-75
2021/12/25 01:15:15;;;;;;;9.55;5.97;;;2.40;94.30;;;;;;5133168;27;20027;-75
2021/12/25 01:18:04;;;;;;;12.77;6.20;;;2.30;94.40;;;;;;5131585;27;20080;-76
2021/12/25 01:31:28;;;;;;;11.73;6.35;;;2.40;94.20;;;;;;5123962;27;20046;-76
2021/12/25 01:36:57;;;;;;;13.05;6.53;;;2.20;94.60;;;;;;5126153;27;20024;-76
2021/12/25 01:47:49;;;;;;;9.55;6.00;;;2.30;95.00;;;;;;5132763;27;20138;-75
2021/12/25 01:50:07;;;;;;;11.43;7.28;;;2.10;94.50;;;;;;5126241;27;20031;-76
2021/12/25 01:52:33;;;;;;;11.45;6.45;;;2.10;94.70;;;;;;5131890;27;20051;-76
2021/12/25 01:55:03;;;;;;;13.18;6.85;;;2.00;95.30;;;;;;5129579;27;20058;-75
2021/12/25 01:57:30;;;;;;;10.38;6.38;;;1.90;94.50;;;;;;5132729;27;20477;-76
2021/12/25 01:59:57;;;;;;;12.18;6.50;;;2.00;94.70;;;;;;5132196;27;20038;-75
2021/12/25 02:02:24;;;;;;;9.98;5.70;;;2.10;95.10;;;;;;5131903;27;20035;-75
2021/12/25 02:04:50;;;;;;;10.80;4.97;;;2.10;95.00;;;;;;5125727;27;20023;-76
2021/12/25 02:07:16;;;;;;;11.00;5.60;;;2.10;94.90;;;;;;5131878;27;20088;-76
2021/12/25 02:09:42;;;;;;;9.98;5.63;;;2.20;94.90;;;;;;5130742;27;20031;-76
2021/12/25 02:12:10;;;;;;;11.68;5.50;;;2.20;95.20;;;;;;5130874;27;20030;-76
2021/12/25 02:14:36;;;;;;;11.73;5.10;;;2.10;95.40;;;;;;5113821;27;20033;-76
2021/12/25 02:17:17;;;;;;;11.75;5.88;;;2.10;95.70;;;;;;5131597;27;20075;-76
2021/12/25 02:19:54;;;;;;;11.95;5.60;;;2.20;95.20;;;;;;5132145;27;20039;-76
2021/12/25 02:22:23;;;;;;;10.20;5.50;;;2.20;94.80;;;;;;5113823;27;20030;-76
2021/12/25 02:24:48;;;;;;;11.52;5.55;;;2.20;94.90;;;;;;5131544;27;20235;-76
2021/12/25 02:27:14;;;;;;;10.45;5.93;;;2.20;95.10;;;;;;5127185;27;20533;-76
2021/12/25 02:29:40;;;;;;;11.80;6.05;;;2.20;95.00;;;;;;5131382;27;20035;-76
2021/12/25 02:32:09;;;;;;;11.00;5.47;;;2.20;95.60;;;;;;5131147;27;20027;-76
2021/12/25 02:34:34;;;;;;;15.13;5.57;;;2.10;95.60;;;;;;5131753;27;20034;-76
2021/12/25 02:37:00;;;;;;;6.78;4.97;;;2.10;95.10;;;;;;5130592;27;20389;-76
2021/12/25 02:39:26;;;;;;;8.98;4.97;;;2.10;95.10;;;;;;5131273;27;20101;-76
2021/12/25 02:41:52;;;;;;;10.68;5.75;;;2.10;95.10;;;;;;5131056;27;20537;-76
2021/12/25 02:44:18;;;;;;;10.10;5.38;;;2.10;95.10;;;;;;5129422;27;20039;-76
2021/12/25 02:46:44;;;;;;;10.65;5.75;;;2.20;95.00;;;;;;5131435;27;20450;-76
2021/12/25 02:49:13;;;;;;;9.77;6.28;;;2.20;95.50;;;;;;5131055;27;20072;-75
2021/12/25 02:51:43;;;;;;;9.48;4.68;;;2.30;94.60;;;;;;5126628;27;20130;-75
2021/12/25 02:54:08;;;;;;;11.68;5.88;;;2.40;94.20;;;;;;5128763;27;20035;-76
2021/12/25 02:56:34;;;;;;;10.07;5.57;;;2.50;94.40;;;;;;5124946;27;20023;-76
2021/12/25 02:59:00;;;;;;;10.18;5.25;;;2.50;94.30;;;;;;5130642;27;20487;-76
2021/12/25 03:01:26;;;;;;;10.45;6.38;;;2.50;94.70;;;;;;5125884;27;20023;-77
2021/12/25 03:03:52;;;;;;;13.18;6.25;;;2.50;94.60;;;;;;5130491;27;20422;-76
2021/12/25 03:06:18;;;;;;;11.45;5.88;;;2.60;93.80;;;;;;5129249;27;20079;-76
2021/12/25 03:08:44;;;;;;;8.77;4.95;;;2.60;94.20;;;;;;5130470;27;20055;-76
2021/12/25 03:11:13;;;;;;;11.80;6.05;;;2.50;94.50;;;;;;5130906;27;20098;-76
2021/12/25 03:16:08;;;;;;;10.48;5.85;;;2.40;95.70;;;;;;5129138;27;20039;-75
2021/12/25 03:18:42;;;;;;;12.38;5.75;;;2.40;95.50;;;;;;5126783;27;20172;-76
2021/12/25 03:21:08;;;;;;;11.23;5.72;;;2.30;95.50;;;;;;5131165;27;20381;-76
2021/12/25 03:23:36;;;;;;;12.27;5.95;;;2.40;95.60;;;;;;5130802;27;20027;-76
2021/12/25 03:26:04;;;;;;;10.02;6.05;;;2.40;95.70;;;;;;5130831;27;20020;-76
2021/12/25 03:28:33;;;;;;;9.88;5.28;;;2.40;95.60;;;;;;5130716;27;20113;-75
2021/12/25 03:31:03;;;;;;;8.57;5.28;;;2.40;95.70;;;;;;5130647;27;20023;-75
2021/12/25 03:33:30;;;;;;;11.55;5.72;;;2.30;95.30;;;;;;5125975;27;20055;-76
2021/12/25 03:35:56;;;;;;;11.88;6.28;;;2.50;94.50;;;;;;5130809;27;20500;-76
2021/12/25 03:38:22;;;;;;;11.48;5.85;;;2.60;94.10;;;;;;5130685;27;20118;-76
2021/12/25 03:40:50;;;;;;;16.00;5.90;;;2.60;94.60;;;;;;5130300;28;20035;-75
2021/12/25 03:43:17;;;;;;;12.93;6.05;;;2.60;94.60;;;;;;5131265;28;20031;-75
2021/12/25 03:45:43;;;;;;;9.82;5.22;;;2.60;95.10;;;;;;5130470;28;20027;-76
2021/12/25 03:48:30;;;;;;;9.32;5.53;;;2.60;95.40;;;;;;5130569;28;20083;-76
2021/12/25 03:59:09;;;;;;;12.45;5.80;;;2.60;94.50;;;;;;5130490;28;20046;-76
2021/12/25 04:04:07;;;;;;;11.65;5.57;;;2.60;94.40;;;;;;5113562;28;20168;-75
2021/12/25 04:06:35;;;;;;;12.32;6.07;;;2.60;95.40;;;;;;5122768;28;20035;-75
2021/12/25 04:09:09;;;;;;;8.75;5.10;;;2.60;95.50;;;;;;5119878;28;20088;-75
2021/12/25 04:11:36;;;;;;;9.13;5.10;;;2.60;95.00;;;;;;5122946;28;20610;-75
2021/12/25 04:14:01;;;;;;;9.98;5.82;;;2.60;95.00;;;;;;5124596;27;20042;-75
2021/12/25 04:16:27;;;;;;;9.60;5.13;;;2.50;95.60;;;;;;5124191;27;20031;-75
2021/12/25 04:18:54;;;;;;;8.35;5.38;;;2.50;95.20;;;;;;5125678;27;20531;-75
2021/12/25 04:21:22;;;;;;;10.02;5.72;;;2.50;94.80;;;;;;5118630;27;20026;-74
2021/12/25 04:23:48;;;;;;;11.80;5.25;;;2.30;95.00;;;;;;5128775;27;20043;-75
2021/12/25 04:26:14;;;;;;;10.88;5.78;;;2.30;95.40;;;;;;5122219;27;20027;-74
2021/12/25 04:31:24;;;;;;;9.55;5.50;;;2.20;95.70;;;;;;5129179;27;20035;-75
2021/12/25 05:03:59;;;;;;;10.90;5.30;;;2.50;94.60;;;;;;5120656;27;20119;-75
2021/12/25 05:06:25;;;;;;;9.15;6.10;;;2.50;94.60;;;;;;5125860;27;20027;-75
2021/12/25 05:08:55;;;;;;;10.50;5.97;;;2.40;94.50;;;;;;5125990;27;20107;-75
2021/12/25 05:11:22;;;;;;;12.93;5.85;;;2.50;94.50;;;;;;5126186;27;20052;-75
2021/12/25 05:13:49;;;;;;;11.23;6.18;;;2.60;94.30;;;;;;5124276;27;20031;-75
2021/12/25 05:16:16;;;;;;;11.15;6.57;;;2.60;94.40;;;;;;5121438;27;20030;-75
2021/12/25 05:18:42;;;;;;;9.57;5.32;;;2.70;94.20;;;;;;5123381;27;20413;-75
2021/12/25 05:21:09;;;;;;;9.18;5.50;;;2.70;95.30;;;;;;5126359;27;20027;-74
2021/12/25 05:23:36;;;;;;;9.40;5.63;;;2.70;95.50;;;;;;5125808;27;20031;-74
2021/12/25 05:26:02;;;;;;;16.05;10.55;;;2.60;95.00;;;;;;5124442;27;20505;-75
2021/12/25 05:28:38;;;;;;;14.95;8.60;;;2.60;95.10;;;;;;5124708;27;20041;-75
2021/12/25 05:31:04;;;;;;;10.25;6.57;;;2.60;95.00;;;;;;5124130;27;20034;-75
2021/12/25 05:33:30;;;;;;;13.10;6.80;;;2.70;94.60;;;;;;5119878;27;20461;-75
2021/12/25 05:35:56;;;;;;;11.07;6.13;;;2.70;94.80;;;;;;5125500;27;20043;-75
2021/12/25 05:38:22;;;;;;;8.55;5.10;;;2.80;95.00;;;;;;5125562;27;20031;-74
2021/12/25 05:40:49;;;;;;;9.13;6.22;;;2.80;95.00;;;;;;5125483;27;20023;-75
2021/12/25 05:43:15;;;;;;;13.82;7.93;;;2.80;95.10;;;;;;5124921;27;20136;-74
2021/12/25 05:45:41;;;;;;;9.63;5.93;;;2.80;95.00;;;;;;5125444;27;20023;-74
2021/12/25 05:48:07;;;;;;;11.80;6.15;;;2.70;94.90;;;;;;5120036;27;20186;-75
2021/12/25 05:50:33;;;;;;;10.20;5.43;;;2.90;94.40;;;;;;5117250;27;20041;-74
2021/12/25 05:52:59;;;;;;;140.90;78.28;;;3.00;94.90;;;;;;5101414;27;20108;-74
2021/12/25 05:55:26;;;;;;;27.90;16.33;;;2.90;94.60;;;;;;5125454;27;20061;-74
2021/12/25 05:57:52;;;;;;;16.92;8.80;;;2.90;94.70;;;;;;5124780;27;20031;-75
2021/12/25 06:00:19;;;;;;;14.00;7.28;;;2.80;95.00;;;;;;5124206;27;20054;-74
2021/12/25 06:02:46;;;;;;;10.68;5.85;;;2.90;95.10;;;;;;5124133;27;20488;-75
2021/12/25 06:05:12;;;;;;;13.25;6.38;;;3.00;94.40;;;;;;5124971;27;20035;-75
2021/12/25 06:07:37;;;;;;;13.50;7.53;;;3.10;94.60;;;;;;5120438;27;20620;-75
2021/12/25 06:10:08;;;;;;;11.60;6.72;;;3.00;94.90;;;;;;5124597;27;20373;-75
2021/12/25 06:12:35;;;;;;;10.10;6.90;;;2.80;95.20;;;;;;5123430;27;20019;-75
2021/12/25 06:15:01;;;;;;;13.55;7.18;;;2.50;95.40;;;;;;5124938;27;20026;-74
2021/12/25 06:17:27;;;;;;;11.80;7.10;;;2.50;95.40;;;;;;5124230;27;20059;-75
2021/12/25 06:19:53;;;;;;;11.68;6.53;;;2.70;94.90;;;;;;5124834;27;20660;-74
2021/12/25 06:22:19;;;;;;;16.00;7.30;;;2.80;95.80;;;;;;5123165;27;20034;-75
2021/12/25 06:24:49;;;;;;;10.40;6.07;;;2.70;96.20;;;;;;5121686;27;20549;-75
2021/12/25 06:27:17;;;;;;;13.05;5.93;;;2.60;96.20;;;;;;5123757;27;20023;-75
2021/12/25 06:29:43;;;;;;;10.15;6.10;;;2.70;95.70;;;;;;5125250;27;20059;-75
2021/12/25 06:32:09;;;;;;;12.23;6.75;;;2.70;95.20;;;;;;5123801;27;20035;-75
2021/12/25 06:34:35;;;;;;;13.13;6.47;;;2.90;94.30;;;;;;5114687;27;20110;-75
2021/12/25 06:37:01;;;;;;;10.57;5.45;;;3.00;94.20;;;;;;5108109;27;20046;-75
2021/12/25 06:39:27;;;;;;;12.05;6.80;;;3.00;95.10;;;;;;5124724;27;20126;-75
2021/12/25 06:41:53;;;;;;;10.15;6.53;;;2.90;94.70;;;;;;5117709;27;20425;-75
2021/12/25 06:44:20;;;;;;;10.88;6.72;;;2.90;94.80;;;;;;5124483;27;20171;-75
2021/12/25 06:46:46;;;;;;;12.52;6.13;;;2.80;94.40;;;;;;5121975;27;20038;-75
2021/12/25 06:49:12;;;;;;;11.18;6.20;;;2.90;94.60;;;;;;5124106;27;20034;-75
2021/12/25 06:51:38;;;;;;;10.25;5.90;;;2.80;94.90;;;;;;5108598;27;20038;-75
2021/12/25 06:54:04;;;;;;;10.38;6.28;;;2.70;95.30;;;;;;5121296;27;20027;-74
2021/12/25 06:56:30;;;;;;;11.80;5.43;;;2.80;95.20;;;;;;5123707;27;20095;-75
2021/12/25 06:58:56;;;;;;;11.20;6.13;;;2.80;95.30;;;;;;5120609;27;20038;-75
2021/12/25 07:01:21;;;;;;;13.48;5.80;;;2.90;95.70;;;;;;5111332;27;20027;-75
2021/12/25 07:03:47;;;;;;;10.52;6.05;;;2.80;95.30;;;;;;5121758;27;20781;-75
2021/12/25 07:06:13;;;;;;;11.02;6.28;;;2.70;95.60;;;;;;5123247;27;20076;-75
2021/12/25 07:08:39;;;;;;;13.77;6.85;;;2.70;95.50;;;;;;5124108;27;20401;-74
2021/12/25 07:11:05;;;;;;;13.93;6.43;;;2.70;95.60;;;;;;5124058;27;20027;-75
2021/12/25 07:13:30;;;;;;;11.05;6.28;;;2.80;95.10;;;;;;5123198;27;20023;-75
2021/12/25 07:15:56;;;;;;;11.40;6.43;;;2.70;95.30;;;;;;5123607;27;20442;-74
2021/12/25 07:18:22;;;;;;;10.52;6.38;;;2.60;95.60;;;;;;5128703;27;20034;-73
2021/12/25 07:20:48;;;;;;;13.13;6.63;;;2.60;95.30;;;;;;5121738;27;20657;-73
2021/12/25 07:23:18;;;;;;;9.55;5.93;;;2.70;94.90;;;;;;5116833;27;20112;-74
2021/12/25 07:25:44;;;;;;;11.65;6.35;;;2.60;95.10;;;;;;5123036;27;20266;-73
2021/12/25 07:28:10;;;;;;;11.60;7.10;;;2.50;95.60;;;;;;5123150;27;20034;-75
2021/12/25 07:30:36;;;;;;;10.48;6.10;;;2.50;95.80;;;;;;5121959;27;20020;-74
2021/12/25 07:33:03;;;;;;;13.77;7.28;;;2.50;96.10;;;;;;5119773;27;20046;-73
2021/12/25 07:35:29;;;;;;;11.20;5.47;;;2.60;96.20;;;;;;5121901;27;20042;-73
2021/12/25 07:37:55;;;;;;;10.43;5.80;;;2.70;96.10;;;;;;5122961;27;20027;-74
2021/12/25 07:40:21;;;;;;;11.57;6.03;;;2.70;95.70;;;;;;5121295;27;20031;-74
2021/12/25 07:42:47;;;;;;;9.45;5.97;;;2.60;96.00;;;;;;5120321;28;20458;-74
2021/12/25 07:45:14;;;;;;;10.50;6.07;;;2.60;96.10;;;;;;5117894;27;20541;-74
2021/12/25 07:47:46;;;;;;;9.38;6.10;;;2.60;95.70;;;;;;5121564;27;20019;-73
2021/12/25 07:50:13;;;;;;;9.63;5.93;;;2.70;95.40;;;;;;5123994;27;20099;-75
2021/12/25 07:52:39;;;;;;;10.75;6.00;;;2.70;95.30;;;;;;5127365;27;20110;-74
2021/12/25 07:55:06;;;;;;;10.57;6.75;;;2.70;95.80;;;;;;5130148;27;20057;-75
2021/12/25 07:57:31;;;;;;;10.73;5.60;;;2.70;96.20;;;;;;5122078;27;20027;-74
2021/12/25 07:59:57;;;;;;;14.43;5.90;;;2.70;95.70;;;;;;5123986;27;20035;-72
2021/12/25 08:02:50;;;;;;;11.30;6.47;;;2.80;94.90;;;;;;5125421;27;20023;-74
2021/12/25 08:05:15;;;;;;;11.82;5.72;;;3.00;94.50;;;;;;5120159;27;20023;-71
2021/12/25 08:07:42;;;;;;;11.98;6.00;;;3.10;95.00;;;;;;5124120;27;20079;-72
2021/12/25 08:10:13;;;;;;;12.20;6.32;;;3.10;96.00;;;;;;5125534;27;20038;-74
2021/12/25 08:12:47;;;;;;;11.07;6.18;;;3.10;95.80;;;;;;5123882;27;20023;-74
2021/12/25 08:15:15;;;;;;;10.57;6.50;;;3.00;95.70;;;;;;5126249;27;20492;-74
2021/12/25 08:17:41;;;;;;;11.02;6.28;;;3.10;95.70;;;;;;5126067;27;20106;-72
2021/12/25 08:20:08;;;;;;;12.82;6.15;;;3.20;95.50;;;;;;5126014;27;20529;-74
2021/12/25 08:22:35;;;;;;;13.82;5.97;;;3.20;95.70;;;;;;5125091;27;20031;-72
2021/12/25 08:25:00;;;;;;;12.43;7.40;;;3.20;95.90;;;;;;5125581;27;20604;-74
2021/12/25 08:27:26;;;;;;;13.10;7.93;;;3.00;96.00;;;;;;5127151;27;20027;-73
2021/12/25 08:29:53;;;;;;;19.25;10.68;;;2.90;96.20;;;;;;5125626;27;20053;-75
2021/12/25 08:32:18;;;;;;;14.10;8.65;;;2.90;96.00;;;;;;5125564;27;20523;-72
2021/12/25 08:34:44;;;;;;;19.88;13.73;;;3.00;96.20;;;;;;5126967;27;20027;-74
2021/12/25 08:37:11;;;;;;;20.52;11.63;;;3.10;96.40;;;;;;5123581;27;20509;-74
2021/12/25 08:39:37;;;;;;;14.27;8.75;;;3.20;96.30;;;;;;5127791;27;20081;-72
2021/12/25 08:42:05;;;;;;;15.27;9.05;;;3.10;96.30;;;;;;5127076;27;20485;-73
2021/12/25 08:44:39;;;;;;;12.60;8.35;;;3.20;96.30;;;;;;5124700;27;20046;-74
2021/12/25 08:47:11;;;;;;;12.75;7.68;;;3.30;96.40;;;;;;5121281;27;20023;-74
2021/12/25 08:49:43;;;;;;;12.10;7.55;;;3.40;95.90;;;;;;5104754;28;20058;-73
2021/12/25 08:52:13;;;;;;;10.75;6.78;;;3.50;95.60;;;;;;5123582;27;20053;-73
2021/12/25 08:54:43;;;;;;;9.88;6.20;;;3.70;95.50;;;;;;5107813;27;20065;-73
2021/12/25 08:57:10;;;;;;;14.10;8.07;;;3.70;95.50;;;;;;5120598;27;20968;-73
2021/12/25 08:59:37;;;;;;;13.65;8.07;;;3.70;95.80;;;;;;5118843;27;20977;-73
2021/12/25 09:02:07;;;;;;;14.30;7.60;;;3.70;95.40;;;;;;5125172;27;20062;-73
2021/12/25 09:04:35;;;;;;;12.00;7.68;;;3.80;95.10;;;;;;5125774;27;20038;-72
2021/12/25 09:07:01;;;;;;;11.05;7.30;;;3.80;95.10;;;;;;5119042;27;20035;-72
2021/12/25 09:09:27;;;;;;;16.52;8.48;;;3.90;94.30;;;;;;5098984;27;20038;-75
2021/12/25 09:11:52;;;;;;;15.60;9.77;;;4.00;94.60;;;;;;5121948;27;20019;-74
2021/12/25 09:14:18;;;;;;;16.08;9.63;;;4.10;94.80;;;;;;5123458;27;20519;-74
2021/12/25 09:16:44;;;;;;;25.83;15.77;;;4.10;95.10;;;;;;5121887;27;20102;-77
2021/12/25 09:19:10;;;;;;;22.92;12.20;;;3.70;95.80;;;;;;5122071;27;20034;-78
2021/12/25 09:21:36;;;;;;;19.55;11.52;;;3.70;95.80;;;;;;5124429;27;20151;-78
2021/12/25 09:24:02;;;;;;;15.65;9.07;;;3.90;96.10;;;;;;5121500;27;20110;-78
2021/12/25 09:26:27;;;;;;;20.27;8.45;;;4.00;95.60;;;;;;5122252;27;20114;-75
2021/12/25 09:28:53;;;;;;;12.77;8.32;;;4.00;95.20;;;;;;5123227;27;20053;-75
2021/12/25 09:31:19;;;;;;;11.50;7.07;;;4.10;95.30;;;;;;5120671;27;20134;-77
2021/12/25 09:33:45;;;;;;;12.10;6.88;;;4.10;95.20;;;;;;5122432;27;20482;-75
2021/12/25 09:36:11;;;;;;;13.80;6.90;;;4.20;94.40;;;;;;5123473;27;20043;-76
2021/12/25 09:38:37;;;;;;;15.68;9.40;;;4.20;94.20;;;;;;5123839;27;20053;-78
2021/12/25 09:41:04;;;;;;;17.65;9.57;;;4.30;94.80;;;;;;5125271;27;20137;-77
2021/12/25 09:43:31;;;;;;;19.38;11.60;;;4.10;95.50;;;;;;5122007;27;20138;-75
2021/12/25 09:45:56;;;;;;;16.27;10.35;;;4.10;95.20;;;;;;5123727;27;20099;-75
2021/12/25 09:48:22;;;;;;;14.27;9.10;;;4.20;94.80;;;;;;5111751;27;20117;-74
2021/12/25 09:50:49;;;;;;;13.20;8.32;;;4.30;94.70;;;;;;5111442;27;20019;-74
2021/12/25 09:53:17;;;;;;;15.77;8.80;;;4.30;94.50;;;;;;5114252;27;20023;-73
2021/12/25 09:55:43;;;;;;;16.02;9.13;;;4.50;94.60;;;;;;5122905;27;20028;-74
2021/12/25 09:58:09;;;;;;;13.65;8.35;;;4.50;94.70;;;;;;5117538;27;20019;-75
2021/12/25 10:00:41;;;;;;;13.25;7.47;;;4.60;95.00;;;;;;5121152;27;20072;-75
2021/12/25 10:03:08;;;;;;;13.25;7.53;;;4.60;94.30;;;;;;5123401;27;20269;-78
2021/12/25 10:05:41;;;;;;;11.30;7.55;;;4.60;94.10;;;;;;5118225;27;20030;-78
2021/12/25 10:08:25;;;;;;;12.95;7.32;;;4.70;94.20;;;;;;5122285;27;20131;-75
2021/12/25 10:10:56;;;;;;;19.30;8.23;;;4.70;93.90;;;;;;5123864;27;20034;-79
2021/12/25 10:13:31;;;;;;;19.33;8.50;;;4.70;94.30;;;;;;5117505;27;20022;-76
2021/12/25 10:16:18;;;;;;;17.48;7.72;;;4.80;94.40;;;;;;5122425;27;20027;-76
2021/12/25 10:18:44;;;;;;;14.13;7.30;;;4.80;94.30;;;;;;5121021;27;20031;-75
2021/12/25 10:21:27;;;;;;;11.80;7.18;;;4.80;94.40;;;;;;5122724;27;20376;-76
2021/12/25 10:24:19;;;;;;;11.10;7.45;;;4.80;93.80;;;;;;5111592;27;20019;-74
2021/12/25 10:26:47;;;;;;;17.52;8.25;;;4.80;94.00;;;;;;5125551;27;20495;-77
2021/12/25 10:29:29;;;;;;;17.38;9.10;;;4.90;94.00;;;;;;5121729;27;20027;-73
2021/12/25 10:31:59;;;;;;;19.02;9.15;;;4.90;94.20;;;;;;5122116;27;20027;-73
2021/12/25 10:34:27;;;;;;;11.55;6.93;;;4.90;94.10;;;;;;5121429;27;20023;-74
2021/12/25 10:36:54;;;;;;;17.42;8.73;;;4.90;94.50;;;;;;5114899;27;20023;-76
2021/12/25 10:39:25;;;;;;;15.80;9.00;;;4.80;94.30;;;;;;5117593;27;20027;-71
2021/12/25 10:42:10;;;;;;;14.52;8.63;;;4.90;94.20;;;;;;5128404;27;20473;-78
2021/12/25 10:44:49;;;;;;;16.30;10.85;;;4.90;94.30;;;;;;5130207;27;20027;-73
2021/12/25 10:47:22;;;;;;;15.90;9.45;;;5.00;94.40;;;;;;5128972;27;20035;-77
2021/12/25 10:49:52;;;;;;;19.55;11.13;;;5.00;94.30;;;;;;5128684;27;20061;-75
2021/12/25 10:52:28;;;;;;;20.83;11.88;;;4.80;94.70;;;;;;5128247;27;20031;-74
2021/12/25 10:55:12;;;;;;;17.30;10.18;;;4.90;94.70;;;;;;5129935;27;20015;-74
2021/12/25 10:57:48;;;;;;;21.83;12.63;;;4.90;94.30;;;;;;5106147;27;20041;-78
2021/12/25 11:00:19;;;;;;;20.92;13.00;;;4.80;95.20;;;;;;5110872;27;20122;-73
2021/12/25 11:02:58;;;;;;;23.55;12.50;;;4.60;95.20;;;;;;5129082;27;20089;-73
2021/12/25 11:05:30;;;;;;;20.70;12.60;;;4.80;95.70;;;;;;5120546;27;20505;-73
2021/12/25 11:08:13;;;;;;;23.27;13.13;;;4.70;95.50;;;;;;5124674;27;20116;-73
2021/12/25 11:10:44;;;;;;;19.25;11.48;;;4.80;95.30;;;;;;5129122;27;20042;-79
2021/12/25 11:13:25;;;;;;;21.48;12.65;;;4.70;95.00;;;;;;5108508;27;20066;-81
2021/12/25 11:15:57;;;;;;;17.73;10.88;;;4.70;95.20;;;;;;5124347;27;20023;-79
2021/12/25 11:18:23;;;;;;;19.17;11.13;;;4.50;95.00;;;;;;5125973;27;20524;-80
2021/12/25 11:20:49;;;;;;;17.00;11.02;;;4.60;95.50;;;;;;5124276;27;20030;-74
2021/12/25 11:23:15;;;;;;;21.00;11.15;;;4.60;95.50;;;;;;5119764;27;20031;-76
2021/12/25 11:25:43;;;;;;;19.20;11.15;;;4.60;95.20;;;;;;5118682;27;20022;-82
2021/12/25 11:28:12;;;;;;;21.17;10.93;;;4.60;95.50;;;;;;5123358;27;20092;-80
2021/12/25 11:30:42;;;;;;;18.50;11.93;;;4.70;95.20;;;;;;5116424;27;20641;-78
2021/12/25 11:33:08;;;;;;;18.80;11.75;;;4.80;95.30;;;;;;5119903;27;20033;-84
2021/12/25 11:35:35;;;;;;;19.10;11.35;;;5.00;96.20;;;;;;5120371;27;20128;-78
2021/12/25 11:38:03;;;;;;;18.33;10.75;;;5.20;95.80;;;;;;5121911;27;20370;-81
2021/12/25 11:40:31;;;;;;;18.92;10.52;;;5.20;95.50;;;;;;5117329;27;20664;-80
2021/12/25 11:42:59;;;;;;;19.45;11.27;;;5.00;94.90;;;;;;5124496;27;20449;-79
2021/12/25 11:45:34;;;;;;;18.25;10.27;;;5.10;95.10;;;;;;5121066;27;20034;-81
2021/12/25 11:48:11;;;;;;;17.63;10.50;;;5.10;94.80;;;;;;5117006;28;20023;-78
2021/12/25 11:50:41;;;;;;;18.15;10.75;;;5.10;94.70;;;;;;5119099;27;20026;-79
2021/12/25 11:56:03;;;;;;;18.23;10.68;;;5.30;94.60;;;;;;5122360;27;20031;-77
2021/12/25 11:58:37;;;;;;;16.77;9.90;;;5.40;94.30;;;;;;5117828;27;20918;-73
2021/12/25 12:01:21;;;;;;;17.63;9.83;;;5.40;94.40;;;;;;5120513;27;20080;-73
2021/12/25 12:04:09;;;;;;;16.40;9.98;;;5.40;94.60;;;;;;5108994;27;20276;-76
2021/12/25 12:06:46;;;;;;;15.43;10.20;;;5.50;94.00;;;;;;5116047;27;20517;-80
2021/12/25 12:09:30;;;;;;;17.48;10.00;;;5.40;93.90;;;;;;5120000;27;20047;-79
2021/12/25 12:12:31;;;;;;;17.65;11.40;;;5.40;94.30;;;;;;5123452;27;20084;-79
2021/12/25 12:15:15;;;;;;;16.73;10.00;;;5.30;94.00;;;;;;5118254;27;20043;-78
2021/12/25 12:17:43;;;;;;;18.95;14.48;;;5.50;94.40;;;;;;5123308;27;20035;-76
2021/12/25 12:20:15;;;;;;;15.73;10.93;;;5.70;94.30;;;;;;5121463;28;20133;-78
2021/12/25 12:22:51;;;;;;;15.80;9.32;;;5.70;94.20;;;;;;5118496;27;20102;-78
2021/12/25 12:25:42;;;;;;;14.75;9.85;;;5.70;93.90;;;;;;5118638;27;20031;-75
2021/12/25 12:28:08;;;;;;;21.60;10.80;;;5.70;94.10;;;;;;5116747;27;20038;-76
2021/12/25 12:30:37;;;;;;;19.23;10.32;;;5.90;94.50;;;;;;5115656;27;20023;-74
2021/12/25 12:33:13;;;;;;;15.65;10.25;;;5.90;94.40;;;;;;5117741;27;20750;-74
2021/12/25 12:35:41;;;;;;;16.25;10.43;;;5.70;94.40;;;;;;5121376;27;20027;-76
2021/12/25 12:38:26;;;;;;;18.15;9.13;;;5.60;94.20;;;;;;5120458;27;20407;-77
2021/12/25 12:41:12;;;;;;;40.63;10.50;;;5.70;94.30;;;;;;5125348;27;20031;-77
2021/12/25 12:44:04;;;;;;;15.95;9.88;;;5.70;94.30;;;;;;5124562;27;20062;-77
2021/12/25 12:46:50;;;;;;;18.30;10.60;;;5.70;94.30;;;;;;5120128;27;20091;-76
2021/12/25 12:49:38;;;;;;;18.17;9.07;;;5.60;94.10;;;;;;5122839;27;20023;-78
2021/12/25 12:52:24;;;;;;;14.18;8.85;;;5.60;94.20;;;;;;5093788;27;20041;-76
2021/12/25 12:54:58;;;;;;;16.23;8.85;;;5.50;94.00;;;;;;5121439;27;20110;-83
2021/12/25 12:57:31;;;;;;;14.50;8.57;;;5.50;93.80;;;;;;5125440;27;20187;-79
2021/12/25 13:00:04;;;;;;;14.55;9.30;;;5.50;93.90;;;;;;5120176;27;20031;-76
2021/12/25 13:02:40;;;;;;;15.57;9.27;;;5.40;94.20;;;;;;5122723;27;20397;-80
2021/12/25 13:05:05;;;;;;;18.02;8.65;;;5.50;94.20;;;;;;5125283;27;20102;-82
2021/12/25 13:07:34;;;;;;;14.85;9.00;;;5.30;94.20;;;;;;5126980;27;20548;-78
2021/12/25 13:10:08;;;;;;;17.48;9.45;;;5.40;94.40;;;;;;5125068;27;20083;-77
2021/12/25 13:15:10;;;;;;;15.57;9.30;;;5.50;94.30;;;;;;5123764;27;20039;-79
2021/12/25 13:17:36;;;;;;;15.82;10.45;;;5.60;94.10;;;;;;5125730;27;20046;-80
2021/12/25 13:20:03;;;;;;;13.38;8.57;;;5.60;94.00;;;;;;5126654;27;20430;-81
2021/12/25 13:22:29;;;;;;;15.18;9.32;;;5.50;94.00;;;;;;5127199;27;20035;-76
2021/12/25 13:25:05;;;;;;;14.80;8.82;;;5.60;94.40;;;;;;5124938;27;20468;-75
2021/12/25 13:27:30;;;;;;;17.45;9.63;;;5.60;94.10;;;;;;5123112;27;20035;-75
2021/12/25 13:30:16;;;;;;;18.35;8.80;;;5.70;94.00;;;;;;5122856;27;20019;-74
2021/12/25 13:32:43;;;;;;;14.80;7.88;;;5.70;93.80;;;;;;5115960;27;20048;-76
2021/12/25 13:35:10;;;;;;;14.35;8.43;;;5.70;93.60;;;;;;5123605;27;20063;-73
2021/12/25 13:37:36;;;;;;;16.15;9.15;;;5.80;93.70;;;;;;5115686;27;21032;-76
2021/12/25 13:40:14;;;;;;;16.50;8.27;;;5.80;93.90;;;;;;5123278;27;20166;-77
2021/12/25 13:42:40;;;;;;;15.07;8.10;;;5.80;93.90;;;;;;5124595;27;20067;-75
2021/12/25 13:45:06;;;;;;;17.52;8.70;;;5.80;93.90;;;;;;5121552;27;20130;-77
2021/12/25 13:47:34;;;;;;;14.55;8.65;;;5.80;94.10;;;;;;5119739;27;20125;-77
2021/12/25 13:50:06;;;;;;;13.98;8.43;;;5.70;93.90;;;;;;5126051;27;20023;-79
2021/12/25 13:52:39;;;;;;;15.75;9.35;;;5.70;93.90;;;;;;5126873;27;20035;-79
2021/12/25 13:55:12;;;;;;;14.57;8.75;;;5.60;94.10;;;;;;5125351;27;20114;-79
2021/12/25 13:57:51;;;;;;;16.73;9.38;;;5.60;94.10;;;;;;5125826;27;20027;-81
2021/12/25 14:00:21;;;;;;;16.25;8.82;;;5.60;93.70;;;;;;5125862;27;20149;-78
2021/12/25 14:02:54;;;;;;;16.73;8.13;;;5.60;93.60;;;;;;5111338;27;20023;-77
2021/12/25 14:05:26;;;;;;;13.27;6.70;;;5.60;93.70;;;;;;5123170;27;20545;-80
2021/12/25 14:07:52;;;;;;;14.80;7.57;;;5.70;93.90;;;;;;5124018;27;20058;-77
2021/12/25 14:10:27;;;;;;;17.48;8.38;;;5.70;93.60;;;;;;5115605;27;20043;-74
2021/12/25 14:12:55;;;;;;;14.02;7.75;;;5.70;93.60;;;;;;5123984;27;20027;-76